Alhambra, CA (91899)

11:10 AM PDT on August 21, 2014 (GMT -0700)
Alhambra, CA | Change Station
CLOSE
Current Station
Personal Weather Station
Location: Alhambra, CA
Elevation: 369 ft
Nearby Weather Stations

Elev 369 ft 34.07 °N, 118.11 °W | Updated 14 minutes ago

Clear
Clear
83.8 °F
Feels Like 86 °F
N
0.9
Wind Variable Wind from North

Today
High -- | Low -- °F
--% Chance of Precip.
Yesterday
High -- | Low -- °F
Precip. -- in
6:18 AM 7:32 PM
Waning Crescent, 13% visible
Pressure 29.95 in
Visibility 10.0 miles
Clouds Clear
Heat Index 86 °F
Dew Point 66 °F
Humidity 56%
Rainfall -999.00 in
Snow Depth Not available.
UV 8 out of 12
Pollen 5.40 out of 12
Ozone Good
PM2.5 Moderate
Flu Activity Not available.
METAR KCQT 211747Z AUTO VRB03KT 10SM CLR 25/17 A2995 RMK AO2 SLP140 T02500167 10250 20183 51004

More Conditions Fewer Conditions

Pressure 29.95 in
Visibility 10.0 miles
Clouds Clear
Heat Index 86 °F
Dew Point 66 °F
Humidity 56%
Rainfall -999.00 in
Snow Depth Not available.
UV 8 out of 12
Pollen 5.40 out of 12
Ozone Good
PM2.5 Moderate
Flu Activity Not available.
METAR KCQT 211747Z AUTO VRB03KT 10SM CLR 25/17 A2995 RMK AO2 SLP140 T02500167 10250 20183 51004

More Conditions Fewer Conditions

10-Day Weather Forecast

Almanac

Astronomy

Aug. 21, 2014 Rise Set
Actual Time 6:18 AM PDT 7:32 PM PDT
Civil Twilight 5:52 AM PDT 7:58 PM PDT
Nautical Twilight 5:21 AM PDT 8:29 PM PDT
Astronomical Twilight 4:48 AM PDT 9:01 PM PDT
Moon 2:57 AM PDT 5:00 PM PDT
Length of Visible Light 14h 06m
Length of Day
13h 13m
Tomorrow will be 1m 57s shorter.
Waning Crescent, 13% of the Moon is Illuminated
Today
Waning Crescent
Aug 25
New
Sep 2
First Quarter
Sep 8
Full
Sep 15
Last Quarter

Today's Extremes

State Highs State Lows

Community

WunderPhotos

Upload Photos

1,745,992 photos uploaded!

WunderBlogs® & News

Nearby

Air Quality

  Air Quality AQ Index Pollutant
Yesterday Moderate
PM2.5
Yesterday Good
OZONE
Current Moderate
PM2.5
Current Good
OZONE
Thursday Moderate
OZONE
Thursday Good
PM10
Thursday Good
CO
Thursday Good
NO2

Snow Depth

Station Depth Elevation
Blue Lakes 0 in 8000 ft
Adin Mountain 0 in 6200 ft
Cedar Pass 1 in 7100 ft
Crowder Flat 0 in 5100 ft

Earthquake Activity

City Distance Mag. Time & Date
Malibu Beach, California 34 miles 3.4 10:03 AM PDT
2014-08-15
Kettleman City, California 173 miles 2.9 11:32 PM PDT
2014-08-14
Yucca Valley, California 97 miles 3.8 8:57 PM PDT
2014-08-14
Minimum magnitude displayed is 2.5.

Coastal Water Temperatures

Place Temperature
Santa Monica Pier 70.0 °F
Los Angeles, CA 68.0 °F
La Jolla, CA 70.0 °F

Nearby Weather Stations